createdAt,value
2023-04-02T00:01:19.586Z,5.10
2023-04-02T00:03:54.058Z,3.90
2023-04-02T00:06:33.347Z,4.63
2023-04-02T00:09:22.115Z,3.47
2023-04-02T00:11:54.975Z,3.65
2023-04-02T00:14:33.721Z,2.88
2023-04-02T00:17:06.067Z,3.13
2023-04-02T00:19:45.403Z,2.88
2023-04-02T00:22:26.764Z,3.13
2023-04-02T00:24:56.603Z,2.08
2023-04-02T00:27:23.848Z,2.80
2023-04-02T00:29:53.812Z,2.78
2023-04-02T00:32:26.886Z,2.45
2023-04-02T00:34:55.282Z,2.70
2023-04-02T00:37:28.309Z,3.47
2023-04-02T00:40:06.994Z,4.00
2023-04-02T00:42:36.193Z,4.20
2023-04-02T00:45:04.618Z,4.63
2023-04-02T00:47:38.129Z,5.18
2023-04-02T00:50:29.331Z,5.72
2023-04-02T00:52:58.224Z,6.35
2023-04-02T00:55:36.888Z,6.75
2023-04-02T00:58:05.419Z,6.25
2023-04-02T01:00:35.333Z,7.35
2023-04-02T01:03:17.644Z,9.20
2023-04-02T01:05:57.586Z,7.50
2023-04-02T01:08:29.956Z,7.10
2023-04-02T01:11:29.631Z,7.25
2023-04-02T01:14:20.164Z,7.63
2023-04-02T01:17:26.765Z,7.70
2023-04-02T01:20:18.257Z,8.40
2023-04-02T01:23:00.406Z,9.02
2023-04-02T01:25:38.463Z,7.43
2023-04-02T01:28:45.754Z,7.15
2023-04-02T01:31:15.400Z,8.10
2023-04-02T01:33:42.874Z,7.07
2023-04-02T01:36:42.118Z,7.80
2023-04-02T01:39:30.411Z,7.13
2023-04-02T01:42:05.550Z,6.00
2023-04-02T01:44:50.270Z,5.50
2023-04-02T01:47:20.247Z,7.53
2023-04-02T01:49:48.242Z,6.20
2023-04-02T01:52:26.452Z,6.57
2023-04-02T01:54:54.829Z,5.78
2023-04-02T01:57:22.106Z,6.82
2023-04-02T01:59:49.380Z,7.88
2023-04-02T02:02:16.722Z,7.95
2023-04-02T02:04:44.354Z,7.78
2023-04-02T02:07:20.931Z,7.43
2023-04-02T02:09:49.345Z,7.80
2023-04-02T02:12:16.866Z,6.95
2023-04-02T02:14:49.634Z,7.22
2023-04-02T02:17:20.179Z,7.10
2023-04-02T02:19:55.594Z,6.50
2023-04-02T02:25:05.710Z,6.10
2023-04-02T02:27:51.055Z,7.85
2023-04-02T02:30:27.728Z,8.15
2023-04-02T02:32:59.321Z,8.13
2023-04-02T02:35:37.458Z,8.13
2023-04-02T02:38:13.494Z,8.02
2023-04-02T02:40:46.539Z,6.65
2023-04-02T02:43:17.066Z,7.63
2023-04-02T02:45:47.582Z,6.10
2023-04-02T02:48:19.661Z,8.00
2023-04-02T02:50:47.589Z,8.40
2023-04-02T02:53:25.163Z,6.50
2023-04-02T02:55:59.736Z,7.43
2023-04-02T02:58:32.933Z,8.00
2023-04-02T03:01:00.786Z,8.27
2023-04-02T03:03:32.813Z,9.10
2023-04-02T03:06:10.756Z,8.80
2023-04-02T03:08:46.820Z,8.50
2023-04-02T03:11:25.054Z,8.77
2023-04-02T03:13:56.270Z,7.82
2023-04-02T03:16:33.296Z,8.98
2023-04-02T03:19:28.770Z,9.45
2023-04-02T03:22:37.719Z,9.75
2023-04-02T03:25:15.349Z,12.40
2023-04-02T03:27:46.981Z,9.57
2023-04-02T03:30:37.336Z,9.63
2023-04-02T03:33:12.020Z,9.57
2023-04-02T03:35:55.924Z,8.85
2023-04-02T03:38:34.418Z,8.30
2023-04-02T03:41:27.429Z,8.05
2023-04-02T03:43:58.939Z,8.02
2023-04-02T03:46:38.380Z,7.38
2023-04-02T03:49:25.994Z,8.02
2023-04-02T03:52:04.099Z,8.65
2023-04-02T03:54:32.068Z,9.30
2023-04-02T03:56:59.980Z,8.88
2023-04-02T03:59:59.757Z,9.18
2023-04-02T04:02:27.035Z,7.90
2023-04-02T04:04:56.195Z,7.90
2023-04-02T04:07:38.911Z,8.55
2023-04-02T04:10:09.077Z,8.13
2023-04-02T04:12:46.722Z,6.93
2023-04-02T04:15:28.923Z,7.93
2023-04-02T04:18:19.618Z,9.88
2023-04-02T04:20:57.836Z,8.60
2023-04-02T04:23:30.822Z,9.88
2023-04-02T04:26:19.884Z,9.98
2023-04-02T04:28:58.819Z,11.40
2023-04-02T04:31:50.378Z,11.68
2023-04-02T04:34:42.515Z,12.30
2023-04-02T04:37:22.156Z,12.48
2023-04-02T04:40:00.585Z,13.25
2023-04-02T04:42:32.994Z,12.73
2023-04-02T04:45:12.433Z,12.10
2023-04-02T04:47:48.881Z,10.70
2023-04-02T04:50:37.400Z,9.70
2023-04-02T04:53:26.617Z,9.93
2023-04-02T04:56:15.965Z,9.55
2023-04-02T04:59:14.684Z,11.15
2023-04-02T05:04:21.065Z,11.77
2023-04-02T05:07:01.259Z,10.45
2023-04-02T05:09:54.313Z,9.77
2023-04-02T05:12:39.886Z,8.60
2023-04-02T05:15:27.415Z,8.40
2023-04-02T05:18:19.611Z,8.55
2023-04-02T05:20:56.704Z,8.18
2023-04-02T05:23:43.182Z,8.43
2023-04-02T05:26:22.842Z,9.80
2023-04-02T05:29:06.069Z,9.10
2023-04-02T05:31:48.680Z,8.57
2023-04-02T05:34:26.779Z,8.25
2023-04-02T05:36:55.925Z,8.07
2023-04-02T05:39:25.384Z,8.13
2023-04-02T05:42:08.470Z,10.50
2023-04-02T05:44:42.109Z,9.23
2023-04-02T05:48:02.267Z,9.32
2023-04-02T05:50:40.713Z,7.82
2023-04-02T05:53:14.167Z,6.97
2023-04-02T05:56:05.908Z,8.77
2023-04-02T05:59:02.926Z,10.77
2023-04-02T06:01:39.426Z,10.57
2023-04-02T06:04:21.859Z,9.77
2023-04-02T06:07:34.831Z,7.00
2023-04-02T06:10:11.146Z,7.00
2023-04-02T06:12:45.981Z,7.28
2023-04-02T06:15:19.369Z,7.30
2023-04-02T06:17:59.604Z,6.95
2023-04-02T06:20:28.201Z,7.07
2023-04-02T06:23:07.440Z,8.40
2023-04-02T06:25:45.189Z,8.82
2023-04-02T06:28:20.177Z,8.85
2023-04-02T06:30:49.102Z,8.07
2023-04-02T06:33:16.419Z,8.27
2023-04-02T06:35:46.966Z,6.47
2023-04-02T06:38:21.842Z,8.65
2023-04-02T06:41:02.445Z,9.05
2023-04-02T06:43:41.233Z,9.35
2023-04-02T06:46:24.796Z,9.50
2023-04-02T06:48:57.173Z,8.00
2023-04-02T06:51:26.459Z,8.25
2023-04-02T06:53:53.671Z,7.85
2023-04-02T06:56:45.348Z,9.23
2023-04-02T06:59:13.277Z,9.57
2023-04-02T07:01:54.604Z,10.48
2023-04-02T07:04:22.564Z,9.02
2023-04-02T07:06:49.817Z,8.05
2023-04-02T07:09:17.413Z,7.75
2023-04-02T07:11:44.628Z,8.25
2023-04-02T07:14:14.790Z,7.95
2023-04-02T07:16:43.340Z,6.85
2023-04-02T07:19:22.145Z,5.60
2023-04-02T07:25:27.508Z,7.03
2023-04-02T07:27:55.387Z,7.05
2023-04-02T07:30:22.982Z,6.82
2023-04-02T07:32:50.120Z,8.77
2023-04-02T07:35:17.296Z,8.45
2023-04-02T07:37:44.535Z,9.30
2023-04-02T07:40:22.186Z,10.57
2023-04-02T07:42:50.003Z,11.65
2023-04-02T07:45:17.244Z,10.75
2023-04-02T07:47:45.803Z,11.65
2023-04-02T07:50:13.714Z,10.88
2023-04-02T07:52:45.097Z,11.45
2023-04-02T07:55:14.202Z,11.45
2023-04-02T07:57:49.713Z,12.48
2023-04-02T08:00:18.986Z,10.13
2023-04-02T08:02:46.157Z,11.73
2023-04-02T08:05:13.883Z,11.95
2023-04-02T08:07:41.882Z,12.05
2023-04-02T08:10:11.115Z,13.73
2023-04-02T08:12:39.696Z,12.75
2023-04-02T08:15:07.682Z,13.27
2023-04-02T08:17:34.880Z,12.25
2023-04-02T08:20:02.090Z,12.93
2023-04-02T08:22:29.894Z,12.88
2023-04-02T08:24:58.219Z,11.93
2023-04-02T08:27:26.127Z,12.80
2023-04-02T08:29:54.680Z,12.07
2023-04-02T08:32:23.345Z,12.57
2023-04-02T08:34:50.439Z,11.82
2023-04-02T08:37:17.640Z,11.15
2023-04-02T08:39:44.791Z,12.23
2023-04-02T08:42:34.826Z,10.75
2023-04-02T08:45:23.515Z,11.25
2023-04-02T08:47:53.780Z,12.98
2023-04-02T08:50:37.638Z,11.00
2023-04-02T08:53:12.810Z,11.82
2023-04-02T08:55:53.238Z,10.88
2023-04-02T08:58:43.271Z,10.82
2023-04-02T09:01:45.246Z,12.52
2023-04-02T09:04:22.388Z,11.75
2023-04-02T09:06:52.747Z,11.82
2023-04-02T09:09:22.666Z,13.63
2023-04-02T09:12:04.558Z,10.57
2023-04-02T09:14:31.705Z,13.13
2023-04-02T09:17:09.199Z,12.35
2023-04-02T09:19:40.648Z,12.10
2023-04-02T09:22:57.718Z,11.70
2023-04-02T09:28:01.018Z,11.73
2023-04-02T09:30:41.749Z,11.70
2023-04-02T09:33:09.586Z,12.02
2023-04-02T09:35:50.419Z,10.98
2023-04-02T09:38:23.569Z,9.30
2023-04-02T09:40:55.317Z,10.05
2023-04-02T09:43:32.479Z,10.63
2023-04-02T09:46:22.926Z,11.63
2023-04-02T09:49:01.354Z,11.70
2023-04-02T09:51:34.831Z,9.02
2023-04-02T09:54:04.990Z,7.93
2023-04-02T09:56:38.543Z,7.35
2023-04-02T09:59:23.092Z,6.32
2023-04-02T10:01:56.179Z,6.45
2023-04-02T10:04:35.064Z,8.07
2023-04-02T10:07:03.442Z,7.82
2023-04-02T10:09:36.685Z,8.38
2023-04-02T10:12:07.866Z,9.10
2023-04-02T10:14:40.616Z,9.55
2023-04-02T10:17:19.340Z,9.73
2023-04-02T10:19:52.665Z,10.75
2023-04-02T10:22:22.219Z,9.48
2023-04-02T10:24:50.291Z,7.70
2023-04-02T10:27:26.552Z,7.75
2023-04-02T10:30:08.755Z,6.72
2023-04-02T10:33:03.896Z,4.90
2023-04-02T10:36:06.588Z,4.15
2023-04-02T10:38:43.742Z,3.20
2023-04-02T10:41:31.768Z,2.80
2023-04-02T10:44:27.949Z,3.53
2023-04-02T10:47:08.588Z,3.05
2023-04-02T10:49:42.203Z,2.85
2023-04-02T10:52:23.443Z,2.25
2023-04-02T10:54:56.640Z,1.33
2023-04-02T10:57:26.998Z,0.73
2023-04-02T10:59:59.636Z,0.65
2023-04-02T11:02:39.684Z,0.73
2023-04-02T11:05:23.881Z,0.45
2023-04-02T11:08:20.157Z,0.47
2023-04-02T11:10:53.615Z,1.30
2023-04-02T11:13:28.708Z,0.88
2023-04-02T11:15:56.248Z,0.47
2023-04-02T11:18:38.958Z,0.60
2023-04-02T11:21:26.090Z,0.60
2023-04-02T11:24:01.484Z,1.55
2023-04-02T11:29:19.333Z,0.65
2023-04-02T11:31:47.248Z,0.80
2023-04-02T11:35:06.494Z,0.85
2023-04-02T11:37:45.206Z,0.47
2023-04-02T11:40:12.446Z,0.32
2023-04-02T11:42:43.635Z,0.43
2023-04-02T11:45:31.161Z,1.65
2023-04-02T11:48:03.994Z,0.80
2023-04-02T11:50:39.951Z,0.80
2023-04-02T11:53:13.515Z,0.50
2023-04-02T11:55:47.512Z,0.93
2023-04-02T11:58:27.874Z,0.60
2023-04-02T12:01:18.621Z,0.35
2023-04-02T12:04:07.328Z,0.60
2023-04-02T12:07:13.094Z,0.30
2023-04-02T12:09:55.741Z,0.80
2023-04-02T12:12:40.757Z,0.30
2023-04-02T12:15:34.597Z,0.40
2023-04-02T12:18:15.405Z,0.43
2023-04-02T12:24:24.862Z,0.25
2023-04-02T12:27:22.834Z,0.15
2023-04-02T12:29:51.875Z,0.28
2023-04-02T12:32:30.032Z,0.20
2023-04-02T12:35:04.586Z,0.30
2023-04-02T12:37:32.273Z,0.40
2023-04-02T12:40:02.560Z,0.30
2023-04-02T12:42:35.374Z,0.20
2023-04-02T12:45:04.414Z,0.20
2023-04-02T12:47:33.122Z,0.20
2023-04-02T12:50:02.295Z,0.10
2023-04-02T12:52:29.901Z,0.30
2023-04-02T12:55:00.162Z,0.38
2023-04-02T12:57:27.206Z,0.30
2023-04-02T13:00:54.178Z,0.22
2023-04-02T13:03:22.449Z,0.10
2023-04-02T13:05:53.907Z,0.10
2023-04-02T13:08:37.717Z,0.20
2023-04-02T13:11:06.535Z,3.47
2023-04-02T13:13:39.832Z,1.42
2023-04-02T13:16:15.808Z,1.63
2023-04-02T13:18:44.985Z,4.03
2023-04-02T13:21:15.152Z,0.80
2023-04-02T13:23:43.325Z,1.45
2023-04-02T13:26:27.528Z,2.08
2023-04-02T13:29:04.268Z,6.03
2023-04-02T13:31:33.108Z,3.38
2023-04-02T13:34:00.650Z,3.08
2023-04-02T13:36:29.679Z,0.10
2023-04-02T13:38:57.459Z,0.10
2023-04-02T13:41:33.973Z,0.30
2023-04-02T13:44:03.422Z,0.20
2023-04-02T13:46:33.040Z,0.35
2023-04-02T13:49:00.770Z,0.10
2023-04-02T13:51:49.359Z,4.70
2023-04-02T13:54:27.919Z,4.57
2023-04-02T13:56:57.245Z,0.20
2023-04-02T13:59:25.182Z,5.57
2023-04-02T14:01:56.628Z,0.82
2023-04-02T14:04:32.433Z,0.45
2023-04-02T14:07:17.810Z,0.20
2023-04-02T14:10:19.726Z,0.10
2023-04-02T14:13:08.487Z,0.10
2023-04-02T14:16:14.803Z,0.17
2023-04-02T14:19:22.941Z,0.15
2023-04-02T14:22:14.813Z,0.10
2023-04-02T14:25:00.679Z,0.28
2023-04-02T14:30:19.038Z,0.10
2023-04-02T14:33:07.660Z,0.10
2023-04-02T14:35:38.711Z,0.30
2023-04-02T14:38:27.080Z,4.13
2023-04-02T14:41:29.866Z,1.58
2023-04-02T14:44:04.243Z,0.30
2023-04-02T14:46:34.838Z,0.30
2023-04-02T14:49:24.432Z,0.22
2023-04-02T14:52:19.641Z,0.38
2023-04-02T14:55:21.966Z,0.43
2023-04-02T14:57:53.826Z,0.20
2023-04-02T15:00:38.051Z,0.20
2023-04-02T15:03:25.202Z,0.10
2023-04-02T15:06:05.498Z,0.20
2023-04-02T15:08:58.505Z,0.10
2023-04-02T15:11:54.227Z,0.30
2023-04-02T15:14:31.922Z,0.10
2023-04-02T15:16:59.328Z,0.20
2023-04-02T15:19:26.490Z,0.65
2023-04-02T15:22:12.156Z,0.30
2023-04-02T15:24:54.156Z,0.20
2023-04-02T15:27:43.841Z,0.10
2023-04-02T15:30:35.643Z,0.10
2023-04-02T15:33:30.203Z,0.10
2023-04-02T15:36:23.687Z,0.10
2023-04-02T15:39:01.408Z,0.10
2023-04-02T15:41:33.943Z,0.10
2023-04-02T15:44:19.068Z,0.15
2023-04-02T15:46:56.405Z,0.20
2023-04-02T15:49:42.294Z,0.10
